createdAt,value
2023-03-07T00:03:33.732Z,75.53
2023-03-07T00:08:39.391Z,75.63
2023-03-07T00:13:41.663Z,75.64
2023-03-07T00:18:44.117Z,76.08
2023-03-07T00:23:46.751Z,76.33
2023-03-07T00:28:51.888Z,76.66
2023-03-07T00:33:53.867Z,76.26
2023-03-07T00:38:55.894Z,76.61
2023-03-07T00:43:58.625Z,76.63
2023-03-07T00:49:01.857Z,77.09
2023-03-07T00:54:23.687Z,77.40
2023-03-07T00:59:25.563Z,77.35
2023-03-07T01:04:28.587Z,77.22
2023-03-07T01:09:30.349Z,77.43
2023-03-07T01:14:32.035Z,77.38
2023-03-07T01:19:33.918Z,77.68
2023-03-07T01:24:35.678Z,78.15
2023-03-07T01:29:37.538Z,78.23
2023-03-07T01:34:39.612Z,78.38
2023-03-07T01:39:41.381Z,78.57
2023-03-07T01:45:36.066Z,78.28
2023-03-07T01:50:39.860Z,77.60
2023-03-07T01:55:42.274Z,77.94
2023-03-07T02:00:51.312Z,77.77
2023-03-07T02:05:58.711Z,77.87
2023-03-07T02:11:01.090Z,77.84
2023-03-07T02:16:04.108Z,77.38
2023-03-07T02:21:36.804Z,77.04
2023-03-07T02:26:50.960Z,77.08
2023-03-07T02:31:52.871Z,76.79
2023-03-07T02:37:16.504Z,76.63
2023-03-07T02:42:25.624Z,76.31
2023-03-07T02:47:36.401Z,76.37
2023-03-07T02:52:39.291Z,76.04
2023-03-07T02:57:41.262Z,75.50
2023-03-07T03:02:43.463Z,75.20
2023-03-07T03:07:45.343Z,75.52
2023-03-07T03:12:47.400Z,75.52
2023-03-07T03:17:49.646Z,75.47
2023-03-07T03:22:53.009Z,75.46
2023-03-07T03:27:55.510Z,75.08
2023-03-07T03:32:59.289Z,75.32
2023-03-07T03:38:02.141Z,75.06
2023-03-07T03:43:03.952Z,75.07
2023-03-07T03:48:07.668Z,75.01
2023-03-07T03:53:09.772Z,75.23
2023-03-07T03:58:11.816Z,75.48
2023-03-07T04:03:13.797Z,74.99
2023-03-07T04:08:15.674Z,75.16
2023-03-07T04:13:17.535Z,75.20
2023-03-07T04:18:19.634Z,75.29
2023-03-07T04:23:23.565Z,75.05
2023-03-07T04:28:28.977Z,75.39
2023-03-07T04:33:30.696Z,75.26
2023-03-07T04:38:32.625Z,75.23
2023-03-07T04:43:34.757Z,75.58
2023-03-07T04:48:36.895Z,75.75
2023-03-07T04:53:39.222Z,75.99
2023-03-07T04:58:41.259Z,76.25
2023-03-07T05:03:43.122Z,76.82
2023-03-07T05:08:45.496Z,77.17
2023-03-07T05:13:47.367Z,77.17
2023-03-07T05:18:52.423Z,77.74
2023-03-07T05:23:54.380Z,78.13
2023-03-07T05:28:56.380Z,78.69
2023-03-07T05:33:58.680Z,78.77
2023-03-07T05:39:00.385Z,78.75
2023-03-07T05:44:03.457Z,78.89
2023-03-07T05:49:05.529Z,78.86
2023-03-07T05:54:07.458Z,78.80
2023-03-07T05:59:12.951Z,78.69
2023-03-07T06:04:14.957Z,78.61
2023-03-07T06:09:16.845Z,78.15
2023-03-07T06:14:18.957Z,77.92
2023-03-07T06:19:20.919Z,77.67
2023-03-07T06:24:23.267Z,76.76
2023-03-07T06:29:25.240Z,76.36
2023-03-07T06:34:27.550Z,75.78
2023-03-07T06:39:31.312Z,75.43
2023-03-07T06:44:36.699Z,74.79
2023-03-07T06:49:38.583Z,74.41
2023-03-07T06:54:40.732Z,73.80
2023-03-07T06:59:42.612Z,72.98
2023-03-07T07:04:45.043Z,72.69
2023-03-07T07:09:47.066Z,72.44
2023-03-07T07:14:49.182Z,71.73
2023-03-07T07:19:51.441Z,71.01
2023-03-07T07:24:53.297Z,70.16
2023-03-07T07:29:55.622Z,69.60
2023-03-07T07:34:57.792Z,68.71
2023-03-07T07:39:59.728Z,68.18
2023-03-07T07:45:01.886Z,66.95
2023-03-07T07:50:05.944Z,65.89
2023-03-07T07:55:10.332Z,65.96
2023-03-07T08:00:13.445Z,65.29
2023-03-07T08:05:15.876Z,65.23
2023-03-07T08:10:18.934Z,64.80
2023-03-07T08:15:21.685Z,63.92
2023-03-07T08:20:25.687Z,63.45
2023-03-07T08:25:27.392Z,63.23
2023-03-07T08:30:30.712Z,63.38
2023-03-07T08:35:32.468Z,62.21
2023-03-07T08:40:34.282Z,62.19
2023-03-07T08:45:39.694Z,61.25
2023-03-07T08:50:41.447Z,60.66
2023-03-07T08:55:43.696Z,61.21
2023-03-07T09:00:45.531Z,60.40
2023-03-07T09:05:47.204Z,59.79
2023-03-07T09:10:48.973Z,58.43
2023-03-07T09:15:50.978Z,58.22
2023-03-07T09:20:52.889Z,57.82
2023-03-07T09:25:55.070Z,57.87
2023-03-07T09:30:57.061Z,56.40
2023-03-07T09:35:58.744Z,55.75
2023-03-07T09:41:34.837Z,56.24
2023-03-07T09:46:47.309Z,55.26
2023-03-07T09:51:54.005Z,54.79
2023-03-07T09:56:58.757Z,53.50
2023-03-07T10:02:18.619Z,53.61
2023-03-07T10:07:24.511Z,51.42
2023-03-07T10:12:47.007Z,50.58
2023-03-07T10:18:08.247Z,50.51
2023-03-07T10:23:44.618Z,50.21
2023-03-07T10:28:48.672Z,51.00
2023-03-07T10:33:52.422Z,49.55
2023-03-07T10:39:06.536Z,48.97
2023-03-07T10:44:15.843Z,48.90
2023-03-07T10:49:26.673Z,48.78
2023-03-07T10:54:34.298Z,49.06
2023-03-07T10:59:38.429Z,50.42
2023-03-07T11:04:46.918Z,50.23
2023-03-07T11:09:48.649Z,50.20
2023-03-07T11:15:09.251Z,50.54
2023-03-07T11:20:47.589Z,49.37
2023-03-07T11:25:51.031Z,50.12
2023-03-07T11:31:27.229Z,48.83
2023-03-07T11:36:35.900Z,49.12
2023-03-07T11:41:43.647Z,48.79
2023-03-07T11:46:57.385Z,49.22
2023-03-07T11:52:02.157Z,49.91
2023-03-07T11:57:31.070Z,49.32
2023-03-07T12:03:20.869Z,49.19
2023-03-07T12:08:37.595Z,50.00
2023-03-07T12:14:09.830Z,48.68
2023-03-07T12:19:57.182Z,47.73
2023-03-07T12:25:17.605Z,48.65
2023-03-07T12:30:25.365Z,48.86
2023-03-07T12:35:32.759Z,48.59
2023-03-07T12:40:41.741Z,48.61
2023-03-07T12:45:50.445Z,48.94
2023-03-07T12:51:20.120Z,49.14
2023-03-07T12:56:43.216Z,48.20
2023-03-07T13:01:47.803Z,47.29
2023-03-07T13:06:50.323Z,46.97
2023-03-07T13:12:16.109Z,47.38
2023-03-07T13:17:30.095Z,47.76
2023-03-07T13:22:31.800Z,47.65
2023-03-07T13:27:46.800Z,48.34
2023-03-07T13:33:04.144Z,48.87
2023-03-07T13:38:15.314Z,49.14
2023-03-07T13:43:24.187Z,49.12
2023-03-07T13:48:30.086Z,48.80
2023-03-07T13:53:56.887Z,49.12
2023-03-07T13:59:14.044Z,49.76
2023-03-07T14:04:39.359Z,49.85
2023-03-07T14:10:09.803Z,49.20
2023-03-07T14:16:01.000Z,49.42
2023-03-07T14:21:27.351Z,48.73
2023-03-07T14:26:33.891Z,48.69
2023-03-07T14:31:41.742Z,49.10
2023-03-07T14:36:46.056Z,49.48
2023-03-07T14:42:03.577Z,48.85
2023-03-07T14:47:24.325Z,49.07
2023-03-07T14:52:31.136Z,48.50
2023-03-07T14:57:33.494Z,48.93
2023-03-07T15:02:35.481Z,49.25
2023-03-07T15:07:37.290Z,49.35
2023-03-07T15:12:39.481Z,49.60
2023-03-07T15:17:44.045Z,49.70
2023-03-07T15:22:46.663Z,50.03
2023-03-07T15:28:17.119Z,50.29
2023-03-07T15:33:18.855Z,50.64
2023-03-07T15:38:26.105Z,50.76
2023-03-07T15:43:34.689Z,51.57
2023-03-07T15:48:53.893Z,51.80
2023-03-07T15:53:59.749Z,52.57
2023-03-07T15:59:16.452Z,53.28
2023-03-07T16:04:37.013Z,54.09
2023-03-07T16:09:38.637Z,54.30
2023-03-07T16:14:40.905Z,54.81
2023-03-07T16:19:42.565Z,55.55
2023-03-07T16:24:45.247Z,55.50
2023-03-07T16:29:47.534Z,55.97
2023-03-07T16:34:49.921Z,56.12
2023-03-07T16:39:51.669Z,56.62
2023-03-07T16:44:53.872Z,56.78
2023-03-07T16:49:55.735Z,57.50
2023-03-07T16:54:57.675Z,57.33
2023-03-07T16:59:59.661Z,57.32
2023-03-07T17:05:01.337Z,57.35
2023-03-07T17:10:03.213Z,57.68
2023-03-07T17:15:06.702Z,57.99
2023-03-07T17:20:13.122Z,58.18
2023-03-07T17:25:15.269Z,58.54
2023-03-07T17:30:25.563Z,59.01
2023-03-07T17:35:28.467Z,59.47
2023-03-07T17:40:30.158Z,59.72
2023-03-07T17:45:32.041Z,60.11
2023-03-07T17:50:33.918Z,60.12
2023-03-07T17:55:35.635Z,60.81
2023-03-07T18:00:38.702Z,60.98
2023-03-07T18:05:41.194Z,61.41
2023-03-07T18:10:43.456Z,61.59
2023-03-07T18:15:46.399Z,61.93
2023-03-07T18:21:00.407Z,62.38
2023-03-07T18:26:05.888Z,63.26
2023-03-07T18:31:29.685Z,63.70
2023-03-07T18:36:31.540Z,64.18
2023-03-07T18:41:33.283Z,64.30
2023-03-07T18:46:37.081Z,64.77
2023-03-07T18:51:39.537Z,64.67
2023-03-07T18:56:42.705Z,64.92
2023-03-07T19:01:45.466Z,65.06
2023-03-07T19:06:48.300Z,65.57
2023-03-07T19:11:50.274Z,65.83
2023-03-07T19:16:52.058Z,66.13
2023-03-07T19:21:53.895Z,66.25
2023-03-07T19:26:55.987Z,66.68
2023-03-07T19:31:57.857Z,66.45
2023-03-07T19:37:00.104Z,66.80
2023-03-07T19:42:01.878Z,66.98
2023-03-07T19:47:03.869Z,67.27
2023-03-07T19:52:05.918Z,67.60
2023-03-07T19:57:09.537Z,68.03
2023-03-07T20:02:13.735Z,68.07
2023-03-07T20:07:16.013Z,68.23
2023-03-07T20:12:17.677Z,68.47
2023-03-07T20:17:19.391Z,68.63
2023-03-07T20:22:23.421Z,68.74
2023-03-07T20:27:26.447Z,69.03
2023-03-07T20:32:28.491Z,69.16
2023-03-07T20:37:33.070Z,68.93
2023-03-07T20:42:34.739Z,68.78
2023-03-07T20:47:38.516Z,68.53
2023-03-07T20:52:40.417Z,68.41
2023-03-07T20:57:42.448Z,68.51
2023-03-07T21:02:46.512Z,68.49
2023-03-07T21:07:49.917Z,68.44
2023-03-07T21:12:51.758Z,68.67
2023-03-07T21:17:53.526Z,68.72
2023-03-07T21:22:55.736Z,68.67
2023-03-07T21:27:58.530Z,69.05
2023-03-07T21:33:00.209Z,69.38
2023-03-07T21:38:01.981Z,69.16
2023-03-07T21:43:03.716Z,69.17
2023-03-07T21:48:05.860Z,69.14
2023-03-07T21:53:07.605Z,69.27
2023-03-07T21:58:09.308Z,69.67
2023-03-07T22:03:11.107Z,69.57
2023-03-07T22:08:16.054Z,69.70
2023-03-07T22:13:21.179Z,69.60
2023-03-07T22:18:23.684Z,69.96
2023-03-07T22:23:26.640Z,69.79
2023-03-07T22:28:28.342Z,69.91
2023-03-07T22:33:30.301Z,70.10
2023-03-07T22:38:32.542Z,70.26
2023-03-07T22:43:37.322Z,70.52
2023-03-07T22:48:40.813Z,70.84
2023-03-07T22:54:16.869Z,70.90
2023-03-07T22:59:18.846Z,71.49
2023-03-07T23:04:20.657Z,71.61
2023-03-07T23:09:22.713Z,71.78
2023-03-07T23:14:24.767Z,72.06
2023-03-07T23:19:26.510Z,72.28
2023-03-07T23:24:28.268Z,72.19
2023-03-07T23:29:30.023Z,72.38
2023-03-07T23:34:31.788Z,72.27
2023-03-07T23:39:33.464Z,72.49
2023-03-07T23:44:35.862Z,72.59
2023-03-07T23:49:37.810Z,72.51
2023-03-07T23:54:41.963Z,72.38
2023-03-07T23:59:43.756Z,72.53
